createdAt,value
2023-02-13T00:00:31.710Z,0.00
2023-02-13T00:01:31.669Z,0.00
2023-02-13T00:02:31.655Z,0.00
2023-02-13T00:03:31.643Z,0.00
2023-02-13T00:04:31.523Z,0.00
2023-02-13T00:05:31.482Z,0.00
2023-02-13T00:06:31.450Z,0.00
2023-02-13T00:07:31.378Z,0.00
2023-02-13T00:08:31.329Z,0.00
2023-02-13T00:09:31.282Z,0.00
2023-02-13T00:10:31.230Z,0.00
2023-02-13T00:11:31.198Z,0.00
2023-02-13T00:12:31.165Z,0.00
2023-02-13T00:13:31.092Z,0.00
2023-02-13T00:14:31.062Z,0.00
2023-02-13T00:15:31.051Z,0.00
2023-02-13T00:16:30.949Z,0.00
2023-02-13T00:17:30.907Z,0.00
2023-02-13T00:18:30.854Z,0.00
2023-02-13T00:19:30.806Z,0.00
2023-02-13T00:20:30.786Z,0.00
2023-02-13T00:21:30.710Z,0.00
2023-02-13T00:22:30.663Z,0.00
2023-02-13T00:23:30.659Z,0.00
2023-02-13T00:24:30.575Z,0.00
2023-02-13T00:25:30.535Z,0.00
2023-02-13T00:26:30.495Z,0.00
2023-02-13T00:27:30.422Z,0.00
2023-02-13T00:28:30.445Z,0.00
2023-02-13T00:29:30.326Z,0.00
2023-02-13T00:30:30.273Z,0.00
2023-02-13T00:31:30.332Z,0.00
2023-02-13T00:32:30.190Z,0.00
2023-02-13T00:33:30.126Z,0.00
2023-02-13T00:34:30.084Z,0.00
2023-02-13T00:35:30.041Z,0.00
2023-02-13T00:36:29.987Z,0.00
2023-02-13T00:37:29.964Z,0.00
2023-02-13T00:38:29.886Z,0.00
2023-02-13T00:39:29.848Z,0.00
2023-02-13T00:40:29.801Z,0.00
2023-02-13T00:41:29.744Z,0.00
2023-02-13T00:42:29.712Z,0.00
2023-02-13T00:43:29.667Z,0.00
2023-02-13T00:44:29.615Z,0.00
2023-02-13T00:45:29.552Z,0.00
2023-02-13T00:46:29.536Z,0.00
2023-02-13T00:47:29.595Z,0.00
2023-02-13T00:48:29.561Z,0.00
2023-02-13T00:49:29.381Z,0.00
2023-02-13T00:50:29.308Z,0.00
2023-02-13T00:51:29.267Z,0.00
2023-02-13T00:52:29.221Z,0.00
2023-02-13T00:53:29.201Z,0.00
2023-02-13T00:54:29.122Z,0.00
2023-02-13T00:55:29.115Z,0.00
2023-02-13T00:56:29.024Z,0.00
2023-02-13T00:57:28.989Z,0.00
2023-02-13T00:58:28.956Z,0.00
2023-02-13T00:59:28.882Z,0.00
2023-02-13T01:00:28.834Z,0.00
2023-02-13T01:01:29.067Z,0.00
2023-02-13T01:02:28.743Z,0.00
2023-02-13T01:03:28.716Z,0.00
2023-02-13T01:04:28.643Z,0.00
2023-02-13T01:05:28.592Z,0.00
2023-02-13T01:06:28.553Z,0.00
2023-02-13T01:07:28.552Z,0.00
2023-02-13T01:08:28.554Z,0.00
2023-02-13T01:09:28.408Z,0.00
2023-02-13T01:10:28.354Z,0.00
2023-02-13T01:11:28.308Z,0.00
2023-02-13T01:12:28.260Z,0.00
2023-02-13T01:13:28.228Z,0.00
2023-02-13T01:14:28.163Z,0.00
2023-02-13T01:15:28.117Z,0.00
2023-02-13T01:16:28.184Z,0.00
2023-02-13T01:17:28.022Z,0.00
2023-02-13T01:18:27.971Z,0.00
2023-02-13T01:19:27.947Z,0.00
2023-02-13T01:20:27.880Z,0.00
2023-02-13T01:21:27.833Z,0.00
2023-02-13T01:22:27.790Z,0.00
2023-02-13T01:23:27.736Z,0.00
2023-02-13T01:24:27.689Z,0.00
2023-02-13T01:25:27.657Z,0.00
2023-02-13T01:26:27.613Z,0.00
2023-02-13T01:27:27.539Z,0.00
2023-02-13T01:28:27.543Z,0.00
2023-02-13T01:29:27.443Z,0.00
2023-02-13T01:30:27.402Z,0.00
2023-02-13T01:31:27.470Z,0.00
2023-02-13T01:32:27.302Z,0.00
2023-02-13T01:33:27.251Z,0.00
2023-02-13T01:34:27.205Z,0.00
2023-02-13T01:35:27.153Z,0.00
2023-02-13T01:36:27.107Z,0.00
2023-02-13T01:37:27.085Z,0.00
2023-02-13T01:38:27.013Z,0.00
2023-02-13T01:39:26.963Z,0.00
2023-02-13T01:40:26.908Z,0.00
2023-02-13T01:41:26.913Z,0.00
2023-02-13T01:42:26.826Z,0.00
2023-02-13T01:43:26.766Z,0.00
2023-02-13T01:44:26.718Z,0.00
2023-02-13T01:45:26.669Z,0.00
2023-02-13T01:46:26.652Z,0.00
2023-02-13T01:47:26.703Z,0.00
2023-02-13T01:48:26.532Z,0.00
2023-02-13T01:49:26.472Z,0.00
2023-02-13T01:50:26.424Z,0.00
2023-02-13T01:51:26.384Z,0.00
2023-02-13T01:52:26.366Z,0.00
2023-02-13T01:53:26.301Z,0.00
2023-02-13T01:54:26.240Z,0.00
2023-02-13T01:55:26.194Z,0.00
2023-02-13T01:56:26.143Z,0.00
2023-02-13T01:57:26.091Z,0.00
2023-02-13T01:58:26.036Z,0.00
2023-02-13T01:59:26.008Z,0.00
2023-02-13T02:00:25.945Z,0.00
2023-02-13T02:01:25.926Z,0.00
2023-02-13T02:02:26.113Z,0.00
2023-02-13T02:03:25.795Z,0.00
2023-02-13T02:04:25.758Z,0.00
2023-02-13T02:05:25.721Z,0.00
2023-02-13T02:06:25.649Z,0.00
2023-02-13T02:07:25.602Z,0.00
2023-02-13T02:08:25.556Z,0.00
2023-02-13T02:09:25.522Z,0.00
2023-02-13T02:10:25.456Z,0.00
2023-02-13T02:11:25.425Z,0.00
2023-02-13T02:12:25.364Z,0.00
2023-02-13T02:13:25.324Z,0.00
2023-02-13T02:14:25.269Z,0.00
2023-02-13T02:15:25.219Z,0.00
2023-02-13T02:16:25.224Z,0.00
2023-02-13T02:17:25.154Z,0.00
2023-02-13T02:18:25.081Z,0.00
2023-02-13T02:19:25.033Z,0.00
2023-02-13T02:20:24.977Z,0.00
2023-02-13T02:21:24.930Z,0.00
2023-02-13T02:22:24.885Z,0.00
2023-02-13T02:23:24.856Z,0.00
2023-02-13T02:24:24.787Z,0.00
2023-02-13T02:25:24.742Z,0.00
2023-02-13T02:26:24.703Z,0.00
2023-02-13T02:27:24.653Z,0.00
2023-02-13T02:28:24.619Z,0.00
2023-02-13T02:29:24.573Z,0.00
2023-02-13T02:30:24.546Z,0.00
2023-02-13T02:31:24.467Z,0.00
2023-02-13T02:32:24.404Z,0.00
2023-02-13T02:33:24.357Z,0.00
2023-02-13T02:34:24.307Z,0.00
2023-02-13T02:35:24.272Z,0.00
2023-02-13T02:36:24.241Z,0.00
2023-02-13T02:37:24.168Z,0.00
2023-02-13T02:38:24.115Z,0.00
2023-02-13T02:39:24.069Z,0.00
2023-02-13T02:40:24.021Z,0.00
2023-02-13T02:41:23.969Z,0.00
2023-02-13T02:42:23.958Z,0.00
2023-02-13T02:43:23.871Z,0.00
2023-02-13T02:44:23.824Z,0.00
2023-02-13T02:45:23.783Z,0.00
2023-02-13T02:46:23.758Z,0.00
2023-02-13T02:47:23.680Z,0.00
2023-02-13T02:48:23.642Z,0.00
2023-02-13T02:49:23.582Z,0.00
2023-02-13T02:50:23.532Z,0.00
2023-02-13T02:51:23.480Z,0.00
2023-02-13T02:52:23.436Z,0.00
2023-02-13T02:53:23.385Z,0.00
2023-02-13T02:54:23.353Z,0.00
2023-02-13T02:55:23.288Z,0.00
2023-02-13T02:56:23.247Z,0.00
2023-02-13T02:57:23.189Z,0.00
2023-02-13T02:58:23.143Z,0.00
2023-02-13T02:59:23.090Z,0.00
2023-02-13T03:00:23.195Z,0.00
2023-02-13T03:01:23.034Z,0.00
2023-02-13T03:02:22.949Z,0.00
2023-02-13T03:03:22.897Z,0.00
2023-02-13T03:04:22.906Z,0.00
2023-02-13T03:05:22.804Z,0.00
2023-02-13T03:06:22.777Z,0.00
2023-02-13T03:07:22.730Z,0.00
2023-02-13T03:08:22.655Z,0.00
2023-02-13T03:09:22.629Z,0.00
2023-02-13T03:10:22.569Z,0.00
2023-02-13T03:11:22.512Z,0.00
2023-02-13T03:12:22.459Z,0.00
2023-02-13T03:13:22.414Z,0.00
2023-02-13T03:14:22.466Z,0.00
2023-02-13T03:15:22.315Z,0.00
2023-02-13T03:16:22.350Z,0.00
2023-02-13T03:17:22.219Z,0.00
2023-02-13T03:18:22.171Z,0.00
2023-02-13T03:19:22.124Z,0.00
2023-02-13T03:20:22.092Z,0.00
2023-02-13T03:21:22.025Z,0.00
2023-02-13T03:22:21.980Z,0.00
2023-02-13T03:23:21.930Z,0.00
2023-02-13T03:24:21.882Z,0.00
2023-02-13T03:25:21.833Z,0.00
2023-02-13T03:26:21.802Z,0.00
2023-02-13T03:27:21.734Z,0.00
2023-02-13T03:28:21.721Z,0.00
2023-02-13T03:29:21.638Z,0.00
2023-02-13T03:30:21.685Z,0.00
2023-02-13T03:31:21.601Z,0.00
2023-02-13T03:32:21.499Z,0.00
2023-02-13T03:33:21.455Z,0.00
2023-02-13T03:34:21.395Z,0.00
2023-02-13T03:35:21.348Z,0.00
2023-02-13T03:36:21.302Z,0.00
2023-02-13T03:37:21.272Z,0.00
2023-02-13T03:38:21.205Z,0.00
2023-02-13T03:39:21.154Z,0.00
2023-02-13T03:40:21.106Z,0.00
2023-02-13T03:41:21.089Z,0.00
2023-02-13T03:42:21.014Z,0.00
2023-02-13T03:43:21.134Z,0.00
2023-02-13T03:44:20.916Z,0.00
2023-02-13T03:45:20.862Z,0.00
2023-02-13T03:46:20.825Z,0.00
2023-02-13T03:47:20.769Z,0.00
2023-02-13T03:48:20.719Z,0.00
2023-02-13T03:49:20.689Z,0.00
2023-02-13T03:50:20.631Z,0.00
2023-02-13T03:51:20.569Z,0.00
2023-02-13T03:52:20.528Z,0.00
2023-02-13T03:53:20.477Z,0.00
2023-02-13T03:54:20.431Z,0.00
2023-02-13T03:55:20.396Z,0.00
2023-02-13T03:56:20.333Z,0.00
2023-02-13T03:57:20.280Z,0.00
2023-02-13T03:58:20.240Z,0.00
2023-02-13T03:59:20.186Z,0.00
2023-02-13T04:00:20.164Z,0.00
2023-02-13T04:01:20.136Z,0.00
2023-02-13T04:02:20.073Z,0.00
2023-02-13T04:03:19.988Z,0.00
2023-02-13T04:04:19.940Z,0.00
2023-02-13T04:05:19.893Z,0.00
2023-02-13T04:06:19.853Z,0.00
2023-02-13T04:07:19.826Z,0.00
2023-02-13T04:08:19.748Z,0.00
2023-02-13T04:09:19.700Z,0.00
2023-02-13T04:10:19.654Z,0.00
2023-02-13T04:11:19.623Z,0.00
2023-02-13T04:12:19.572Z,0.00
2023-02-13T04:13:19.524Z,0.00
2023-02-13T04:14:19.457Z,0.00
2023-02-13T04:15:19.410Z,0.00
2023-02-13T04:16:19.382Z,0.00
2023-02-13T04:17:19.315Z,0.00
2023-02-13T04:18:19.265Z,0.00
2023-02-13T04:19:19.254Z,0.00
2023-02-13T04:20:19.165Z,0.00
2023-02-13T04:21:19.115Z,0.00
2023-02-13T04:22:19.064Z,0.00
2023-02-13T04:23:19.023Z,0.00
2023-02-13T04:24:18.973Z,0.00
2023-02-13T04:25:18.944Z,0.00
2023-02-13T04:26:18.875Z,0.00
2023-02-13T04:27:18.822Z,0.00
2023-02-13T04:28:18.844Z,0.00
2023-02-13T04:29:18.726Z,0.00
2023-02-13T04:30:18.681Z,0.00
2023-02-13T04:31:18.734Z,0.00
2023-02-13T04:32:18.583Z,0.00
2023-02-13T04:33:18.538Z,0.00
2023-02-13T04:34:18.492Z,0.00
2023-02-13T04:35:18.441Z,0.00
2023-02-13T04:36:18.417Z,0.00
2023-02-13T04:37:18.341Z,0.00
2023-02-13T04:38:18.293Z,0.00
2023-02-13T04:39:18.246Z,0.00
2023-02-13T04:40:18.197Z,0.00
2023-02-13T04:41:18.149Z,0.00
2023-02-13T04:42:18.203Z,0.00
2023-02-13T04:43:18.061Z,0.00
2023-02-13T04:44:18.005Z,0.00
2023-02-13T04:45:17.955Z,0.00
2023-02-13T04:46:17.936Z,0.00
2023-02-13T04:47:17.873Z,0.00
2023-02-13T04:48:17.828Z,0.00
2023-02-13T04:49:17.770Z,0.00
2023-02-13T04:50:17.713Z,0.00
2023-02-13T04:51:17.678Z,0.00
2023-02-13T04:52:17.620Z,0.00
2023-02-13T04:53:17.569Z,0.00
2023-02-13T04:54:17.548Z,0.00
2023-02-13T04:55:17.475Z,0.00
2023-02-13T04:56:18.944Z,0.00
2023-02-13T04:57:17.376Z,0.00
2023-02-13T04:58:17.326Z,0.00
2023-02-13T04:59:17.287Z,0.00
2023-02-13T05:00:17.255Z,0.00
2023-02-13T05:01:17.229Z,0.00
2023-02-13T05:02:17.138Z,0.00
2023-02-13T05:03:17.096Z,0.00
2023-02-13T05:04:17.059Z,0.00
2023-02-13T05:05:16.998Z,0.00
2023-02-13T05:06:16.959Z,0.00
2023-02-13T05:07:16.899Z,0.00
2023-02-13T05:08:16.850Z,0.00
2023-02-13T05:09:16.796Z,0.00
2023-02-13T05:10:16.756Z,0.00
2023-02-13T05:11:16.701Z,0.00
2023-02-13T05:12:16.671Z,0.00
2023-02-13T05:13:16.611Z,0.00
2023-02-13T05:14:16.552Z,0.00
2023-02-13T05:15:16.510Z,0.00
2023-02-13T05:16:16.462Z,0.00
2023-02-13T05:17:16.407Z,0.00
2023-02-13T05:18:16.532Z,0.00
2023-02-13T05:19:16.311Z,0.00
2023-02-13T05:20:16.274Z,0.00
2023-02-13T05:21:16.213Z,0.00
2023-02-13T05:22:16.175Z,0.00
2023-02-13T05:23:16.123Z,0.00
2023-02-13T05:24:16.232Z,0.00
2023-02-13T05:25:16.020Z,0.00
2023-02-13T05:26:15.977Z,0.00
2023-02-13T05:27:15.934Z,0.00
2023-02-13T05:28:15.909Z,0.00
2023-02-13T05:29:15.828Z,0.00
2023-02-13T05:30:15.807Z,0.00
2023-02-13T05:31:15.789Z,0.00
2023-02-13T05:32:15.713Z,0.00
2023-02-13T05:33:15.638Z,0.00
2023-02-13T05:34:15.584Z,0.00
2023-02-13T05:35:15.541Z,0.00
2023-02-13T05:36:15.504Z,0.00
2023-02-13T05:37:15.447Z,0.00
2023-02-13T05:38:15.414Z,0.00
2023-02-13T05:39:15.384Z,0.00
2023-02-13T05:40:15.301Z,0.00
2023-02-13T05:41:15.288Z,0.00
2023-02-13T05:42:15.205Z,0.00
2023-02-13T05:43:15.159Z,0.00
2023-02-13T05:44:15.118Z,0.00
2023-02-13T05:45:15.058Z,0.00
2023-02-13T05:46:15.023Z,0.00
2023-02-13T05:47:14.957Z,0.00
2023-02-13T05:48:14.913Z,0.00
2023-02-13T05:49:14.860Z,0.00
2023-02-13T05:50:14.841Z,0.00
2023-02-13T05:51:14.771Z,0.00
2023-02-13T05:52:14.724Z,0.00
2023-02-13T05:53:14.673Z,0.00
2023-02-13T05:54:14.630Z,0.00
2023-02-13T05:55:14.569Z,0.00
2023-02-13T05:56:14.550Z,0.00
2023-02-13T05:57:14.477Z,0.00
2023-02-13T05:58:14.423Z,0.00
2023-02-13T05:59:14.395Z,0.00
2023-02-13T06:03:47.959Z,0.00
2023-02-13T06:04:47.789Z,0.00
2023-02-13T06:05:47.743Z,4.00
2023-02-13T06:06:47.691Z,0.00
2023-02-13T06:07:47.642Z,0.00
2023-02-13T06:08:47.596Z,4.00
2023-02-13T06:09:47.556Z,4.00
2023-02-13T06:10:47.495Z,4.00
2023-02-13T06:11:47.449Z,4.00
2023-02-13T06:12:47.398Z,8.00
2023-02-13T06:13:47.367Z,8.00
2023-02-13T06:14:47.302Z,12.00
2023-02-13T06:15:47.312Z,8.00
2023-02-13T06:16:47.202Z,12.00
2023-02-13T06:17:47.145Z,16.00
2023-02-13T06:18:47.103Z,20.00
2023-02-13T06:19:47.052Z,24.00
2023-02-13T06:20:47.009Z,28.00
2023-02-13T06:21:46.970Z,32.00
2023-02-13T06:22:46.907Z,40.00
2023-02-13T06:23:46.858Z,44.00
2023-02-13T06:24:46.808Z,52.00
2023-02-13T06:25:46.761Z,60.00
2023-02-13T06:26:46.712Z,64.00
2023-02-13T06:27:46.723Z,80.00
2023-02-13T06:28:46.691Z,88.00
2023-02-13T06:29:46.570Z,100.00
2023-02-13T06:30:46.552Z,116.00
2023-02-13T06:31:46.595Z,128.00
2023-02-13T06:32:46.420Z,140.00
2023-02-13T06:33:46.393Z,160.00
2023-02-13T06:34:46.334Z,172.00
2023-02-13T06:35:46.276Z,184.00
2023-02-13T06:36:46.227Z,208.00
2023-02-13T06:37:46.181Z,220.00
2023-02-13T06:38:46.133Z,240.00
2023-02-13T06:39:46.115Z,260.00
2023-02-13T06:40:46.030Z,284.00
2023-02-13T06:41:45.989Z,300.00
2023-02-13T06:42:45.938Z,340.00
2023-02-13T06:43:45.891Z,372.00
2023-02-13T06:44:45.849Z,408.00
2023-02-13T06:45:45.805Z,432.00
2023-02-13T06:46:45.820Z,456.00
2023-02-13T06:47:45.694Z,472.00
2023-02-13T06:48:45.649Z,516.00
2023-02-13T06:49:45.624Z,540.00
2023-02-13T06:50:45.726Z,576.00
2023-02-13T06:51:45.498Z,612.00
2023-02-13T06:52:45.456Z,648.00
2023-02-13T06:53:45.414Z,656.00
2023-02-13T06:54:48.000Z,696.00
2023-02-13T06:55:45.309Z,728.00
2023-02-13T06:56:45.271Z,760.00
2023-02-13T06:57:45.208Z,760.00
2023-02-13T06:58:45.168Z,792.00
2023-02-13T06:59:45.114Z,824.00
2023-02-13T07:00:45.107Z,880.00
2023-02-13T07:01:45.018Z,928.00
2023-02-13T07:02:45.068Z,956.00
2023-02-13T07:03:44.920Z,996.00
2023-02-13T07:04:44.888Z,1036.00
2023-02-13T07:05:44.823Z,1076.00
2023-02-13T07:06:44.775Z,1096.00
2023-02-13T07:07:44.724Z,1152.00
2023-02-13T07:08:44.696Z,1240.00
2023-02-13T07:09:44.631Z,1276.00
2023-02-13T07:10:44.585Z,1332.00
2023-02-13T07:11:44.537Z,1364.00
2023-02-13T07:12:45.785Z,1420.00
2023-02-13T07:13:44.439Z,1440.00
2023-02-13T07:14:44.435Z,1448.00
2023-02-13T07:15:44.409Z,1440.00
2023-02-13T07:16:44.290Z,1484.00
2023-02-13T07:17:44.243Z,1520.00
2023-02-13T07:18:44.196Z,1560.00
2023-02-13T07:19:44.150Z,1624.00
2023-02-13T07:20:44.129Z,1720.00
2023-02-13T07:21:44.055Z,1796.00
2023-02-13T07:22:44.080Z,1900.00
2023-02-13T07:23:43.951Z,1924.00
2023-02-13T07:24:43.907Z,1992.00
2023-02-13T07:25:43.880Z,2040.00
2023-02-13T07:26:43.842Z,2072.00
2023-02-13T07:27:43.761Z,2108.00
2023-02-13T07:28:43.761Z,2176.00
2023-02-13T07:29:43.664Z,2244.00
2023-02-13T07:30:43.635Z,2336.00
2023-02-13T07:31:43.636Z,2492.00
2023-02-13T07:32:43.522Z,2596.00
2023-02-13T07:33:43.470Z,2792.00
2023-02-13T07:34:59.616Z,2920.00
2023-02-13T07:35:43.481Z,2988.00
2023-02-13T07:36:43.340Z,2944.00
2023-02-13T07:37:43.283Z,2976.00
2023-02-13T07:38:43.228Z,3076.00
2023-02-13T07:39:43.199Z,3088.00
2023-02-13T07:40:43.138Z,3072.00
2023-02-13T07:41:43.093Z,3072.00
2023-02-13T07:42:43.074Z,3160.00
2023-02-13T07:43:42.997Z,3212.00
2023-02-13T07:44:42.947Z,3292.00
2023-02-13T07:45:42.910Z,3304.00
2023-02-13T07:46:42.917Z,3340.00
2023-02-13T07:47:42.809Z,3444.00
2023-02-13T07:48:42.928Z,3476.00
2023-02-13T07:49:42.707Z,3364.00
2023-02-13T07:50:42.661Z,3320.00
2023-02-13T07:51:42.612Z,3360.00
2023-02-13T07:52:42.568Z,3512.00
2023-02-13T07:53:42.512Z,3688.00
2023-02-13T07:54:42.495Z,3780.00
2023-02-13T07:55:42.422Z,3852.00
2023-02-13T07:56:42.373Z,3928.00
2023-02-13T07:57:42.333Z,3960.00
2023-02-13T07:58:42.280Z,3972.00
2023-02-13T07:59:42.228Z,4012.00
2023-02-13T08:00:42.201Z,4000.00
2023-02-13T08:01:42.182Z,4064.00
2023-02-13T08:02:42.083Z,4188.00
2023-02-13T08:03:42.084Z,4196.00
2023-02-13T08:04:41.989Z,4336.00
2023-02-13T08:05:41.938Z,4400.00
2023-02-13T08:06:41.897Z,4500.00
2023-02-13T08:07:41.857Z,4732.00
2023-02-13T08:08:41.798Z,4760.00
2023-02-13T08:09:41.753Z,4904.00
2023-02-13T08:10:41.702Z,5124.00
2023-02-13T08:11:41.651Z,5120.00
2023-02-13T08:12:41.606Z,5156.00
2023-02-13T08:13:41.593Z,5360.00
2023-02-13T08:14:41.511Z,5452.00
2023-02-13T08:15:41.457Z,5496.00
2023-02-13T08:16:41.520Z,5900.00
2023-02-13T08:17:41.364Z,6268.00
2023-02-13T08:18:41.314Z,6244.00
2023-02-13T08:19:41.299Z,6280.00
2023-02-13T08:20:41.223Z,6332.00
2023-02-13T08:21:41.175Z,6440.00
2023-02-13T08:22:41.119Z,6364.00
2023-02-13T08:23:41.141Z,6396.00
2023-02-13T08:24:41.022Z,6104.00
2023-02-13T08:25:40.984Z,6364.00
2023-02-13T08:26:40.960Z,6684.00
2023-02-13T08:27:40.891Z,6620.00
2023-02-13T08:28:40.952Z,6580.00
2023-02-13T08:29:40.788Z,6504.00
2023-02-13T08:30:40.789Z,6596.00
2023-02-13T08:31:40.699Z,6560.00
2023-02-13T08:32:53.478Z,6788.00
2023-02-13T08:33:40.592Z,6916.00
2023-02-13T08:34:40.546Z,7028.00
2023-02-13T08:35:40.525Z,7140.00
2023-02-13T08:36:40.454Z,7264.00
2023-02-13T08:37:40.414Z,7412.00
2023-02-13T08:39:40.315Z,7560.00
2023-02-13T08:40:40.267Z,7352.00
2023-02-13T08:41:40.229Z,7200.00
2023-02-13T08:42:40.298Z,7340.00
2023-02-13T08:43:40.115Z,7660.00
2023-02-13T08:44:40.083Z,7736.00
2023-02-13T08:45:40.087Z,7944.00
2023-02-13T08:46:40.164Z,8192.00
2023-02-13T08:47:39.985Z,8252.00
2023-02-13T08:48:39.908Z,8364.00
2023-02-13T08:49:39.830Z,8380.00
2023-02-13T08:50:39.785Z,8432.00
2023-02-13T08:51:39.734Z,8624.00
2023-02-13T08:52:39.687Z,8616.00
2023-02-13T08:53:39.652Z,8608.00
2023-02-13T08:54:39.603Z,8592.00
2023-02-13T08:55:39.546Z,8548.00
2023-02-13T08:56:39.505Z,8348.00
2023-02-13T08:57:39.462Z,8076.00
2023-02-13T08:58:39.432Z,7880.00
2023-02-13T08:59:39.354Z,7936.00
2023-02-13T09:00:39.332Z,8040.00
2023-02-13T09:01:39.287Z,8284.00
2023-02-13T09:02:39.281Z,8572.00
2023-02-13T09:03:39.168Z,8744.00
2023-02-13T09:04:39.142Z,8812.00
2023-02-13T09:05:39.072Z,8828.00
2023-02-13T09:06:39.027Z,8804.00
2023-02-13T09:07:38.986Z,8684.00
2023-02-13T09:08:38.930Z,8540.00
2023-02-13T09:09:38.895Z,8400.00
2023-02-13T09:10:38.851Z,8272.00
2023-02-13T09:11:38.791Z,8376.00
2023-02-13T09:12:38.762Z,8464.00
2023-02-13T09:13:38.699Z,8636.00
2023-02-13T09:14:38.654Z,8608.00
2023-02-13T09:15:38.598Z,8680.00
2023-02-13T09:16:38.572Z,8852.00
2023-02-13T09:17:38.513Z,8908.00
2023-02-13T09:18:38.486Z,8992.00
2023-02-13T09:19:38.416Z,8952.00
2023-02-13T09:20:38.364Z,8920.00
2023-02-13T09:21:38.319Z,8904.00
2023-02-13T09:22:38.331Z,8912.00
2023-02-13T09:23:38.228Z,9028.00
2023-02-13T09:24:38.206Z,9248.00
2023-02-13T09:25:38.135Z,9392.00
2023-02-13T09:26:38.087Z,9404.00
2023-02-13T09:27:38.034Z,9440.00
2023-02-13T09:28:38.029Z,9488.00
2023-02-13T09:29:37.941Z,9540.00
2023-02-13T09:30:37.949Z,9724.00
2023-02-13T09:31:37.968Z,9928.00
2023-02-13T09:32:37.826Z,10324.00
2023-02-13T09:33:37.782Z,10576.00
2023-02-13T09:34:37.724Z,10704.00
2023-02-13T09:35:37.663Z,11260.00
2023-02-13T09:36:37.617Z,11764.00
2023-02-13T09:37:37.572Z,12072.00
2023-02-13T09:38:37.520Z,12024.00
2023-02-13T09:39:37.496Z,11944.00
2023-02-13T09:40:37.437Z,11732.00
2023-02-13T09:41:37.423Z,11580.00
2023-02-13T09:42:37.349Z,11632.00
2023-02-13T09:43:37.295Z,11520.00
2023-02-13T09:44:37.243Z,11516.00
2023-02-13T09:45:37.197Z,12116.00
2023-02-13T09:46:37.171Z,12544.00
2023-02-13T09:47:37.136Z,12784.00
2023-02-13T09:48:37.059Z,13004.00
2023-02-13T09:49:37.005Z,12780.00
2023-02-13T09:50:36.963Z,12824.00
2023-02-13T09:51:36.915Z,13120.00
2023-02-13T09:52:36.879Z,12956.00
2023-02-13T09:53:36.860Z,12856.00
2023-02-13T09:54:36.779Z,13184.00
2023-02-13T09:55:36.723Z,13252.00
2023-02-13T09:56:36.680Z,13056.00
2023-02-13T09:57:36.641Z,12572.00
2023-02-13T09:58:36.588Z,12072.00
2023-02-13T09:59:36.565Z,12384.00
2023-02-13T10:00:36.506Z,12884.00
2023-02-13T10:01:36.469Z,13048.00
2023-02-13T10:02:36.416Z,13140.00
2023-02-13T10:03:36.364Z,13184.00
2023-02-13T10:04:36.376Z,13312.00
2023-02-13T10:05:36.263Z,13816.00
2023-02-13T10:06:36.220Z,13980.00
2023-02-13T10:07:36.169Z,14036.00
2023-02-13T10:08:36.152Z,14188.00
2023-02-13T10:09:36.073Z,14368.00
2023-02-13T10:10:36.036Z,14412.00
2023-02-13T10:11:35.984Z,14292.00
2023-02-13T10:12:35.936Z,14292.00
2023-02-13T10:13:35.890Z,14412.00
2023-02-13T10:14:35.869Z,14796.00
2023-02-13T10:15:35.837Z,15192.00
2023-02-13T10:16:35.767Z,15268.00
2023-02-13T10:17:35.705Z,15380.00
2023-02-13T10:18:35.664Z,15376.00
2023-02-13T10:19:35.618Z,15248.00
2023-02-13T10:20:35.590Z,15256.00
2023-02-13T10:21:35.530Z,15368.00
2023-02-13T10:22:35.479Z,15544.00
2023-02-13T10:23:35.432Z,15740.00
2023-02-13T10:24:35.393Z,15900.00
2023-02-13T10:25:35.378Z,16228.00
2023-02-13T10:26:35.308Z,16672.00
2023-02-13T10:27:35.263Z,17440.00
2023-02-13T10:28:35.234Z,17216.00
2023-02-13T10:29:35.166Z,17600.00
2023-02-13T10:30:35.120Z,17760.00
2023-02-13T10:31:35.689Z,17728.00
2023-02-13T10:32:35.020Z,17408.00
2023-02-13T10:33:34.977Z,17408.00
2023-02-13T10:34:34.933Z,17536.00
2023-02-13T10:35:34.892Z,17440.00
2023-02-13T10:36:34.839Z,17280.00
2023-02-13T10:37:34.818Z,16788.00
2023-02-13T10:38:34.753Z,16328.00
2023-02-13T10:39:34.702Z,15880.00
2023-02-13T10:40:34.667Z,15656.00
2023-02-13T10:41:34.621Z,15792.00
2023-02-13T10:42:36.428Z,15764.00
2023-02-13T10:43:34.562Z,15980.00
2023-02-13T10:44:34.484Z,15920.00
2023-02-13T10:45:34.440Z,15820.00
2023-02-13T10:46:34.446Z,15740.00
2023-02-13T10:47:34.339Z,15668.00
2023-02-13T10:48:34.300Z,15756.00
2023-02-13T10:49:34.375Z,15748.00
2023-02-13T10:50:34.209Z,15732.00
2023-02-13T10:51:34.166Z,15640.00
2023-02-13T10:52:34.120Z,15792.00
2023-02-13T10:53:34.076Z,16004.00
2023-02-13T10:54:34.039Z,15996.00
2023-02-13T10:55:34.001Z,15972.00
2023-02-13T10:56:33.940Z,15988.00
2023-02-13T10:57:33.898Z,15860.00
2023-02-13T10:58:33.852Z,15524.00
2023-02-13T10:59:33.827Z,15276.00
2023-02-13T11:00:33.792Z,15364.00
2023-02-13T11:01:33.781Z,15628.00
2023-02-13T11:02:33.668Z,15896.00
2023-02-13T11:03:33.621Z,16332.00
2023-02-13T11:04:33.628Z,16708.00
2023-02-13T11:05:33.532Z,16736.00
2023-02-13T11:06:33.508Z,16708.00
2023-02-13T11:07:33.454Z,16560.00
2023-02-13T11:08:33.395Z,16336.00
2023-02-13T11:09:33.351Z,16140.00
2023-02-13T11:10:33.302Z,16040.00
2023-02-13T11:11:33.275Z,15988.00
2023-02-13T11:12:33.231Z,15976.00
2023-02-13T11:13:33.178Z,15988.00
2023-02-13T11:14:33.124Z,15848.00
2023-02-13T11:15:33.123Z,15804.00
2023-02-13T11:16:33.096Z,15948.00
2023-02-13T11:17:32.995Z,16068.00
2023-02-13T11:18:32.949Z,16236.00
2023-02-13T11:19:32.905Z,16304.00
2023-02-13T11:20:32.868Z,16176.00
2023-02-13T11:21:32.845Z,16188.00
2023-02-13T11:22:32.766Z,16416.00
2023-02-13T11:23:32.726Z,16824.00
2023-02-13T11:24:32.688Z,17440.00
2023-02-13T11:25:32.625Z,17440.00
2023-02-13T11:26:32.586Z,17536.00
2023-02-13T11:27:32.565Z,17984.00
2023-02-13T11:28:32.597Z,18816.00
2023-02-13T11:29:32.450Z,19712.00
2023-02-13T11:30:32.401Z,20544.00
2023-02-13T11:31:32.460Z,21568.00
2023-02-13T11:32:32.322Z,22528.00
2023-02-13T11:33:32.292Z,22944.00
2023-02-13T11:34:32.223Z,22528.00
2023-02-13T11:35:32.184Z,22240.00
2023-02-13T11:36:32.132Z,22560.00
2023-02-13T11:37:32.091Z,24160.00
2023-02-13T11:38:32.165Z,26016.00
2023-02-13T11:39:32.023Z,27488.00
2023-02-13T11:40:31.953Z,28672.00
2023-02-13T11:41:31.919Z,29984.00
2023-02-13T11:42:31.864Z,30624.00
2023-02-13T11:43:31.820Z,30304.00
2023-02-13T11:44:31.799Z,29504.00
2023-02-13T11:45:31.738Z,28960.00
2023-02-13T11:46:31.749Z,29120.00
2023-02-13T11:47:31.645Z,29344.00
2023-02-13T11:48:31.600Z,29824.00
2023-02-13T11:49:31.557Z,30464.00
2023-02-13T11:50:31.588Z,31712.00
2023-02-13T11:51:31.465Z,33216.00
2023-02-13T11:52:31.423Z,34560.00
2023-02-13T11:53:31.379Z,36640.00
2023-02-13T11:54:31.335Z,39392.00
2023-02-13T11:55:31.310Z,40640.00
2023-02-13T11:56:31.277Z,40192.00
2023-02-13T11:57:31.221Z,38592.00
2023-02-13T11:58:31.233Z,36992.00
2023-02-13T11:59:31.121Z,35808.00
2023-02-13T12:00:31.150Z,36480.00
2023-02-13T12:01:31.032Z,34944.00
2023-02-13T12:02:31.061Z,32832.00
2023-02-13T12:03:31.020Z,32416.00
2023-02-13T12:04:30.919Z,34720.00
2023-02-13T12:05:30.862Z,35488.00
2023-02-13T12:06:31.294Z,34784.00
2023-02-13T12:07:30.788Z,36256.00
2023-02-13T12:08:30.794Z,39296.00
2023-02-13T12:09:30.697Z,40960.00
2023-02-13T12:10:30.651Z,39008.00
2023-02-13T12:11:30.605Z,39808.00
2023-02-13T12:12:30.587Z,41312.00
2023-02-13T12:13:30.521Z,41664.00
2023-02-13T12:14:30.516Z,46752.00
2023-02-13T12:15:30.435Z,51840.00
2023-02-13T12:16:30.431Z,63872.00
2023-02-13T12:17:32.140Z,63168.00
2023-02-13T12:18:30.314Z,66208.00
2023-02-13T12:19:30.278Z,67200.00
2023-02-13T12:20:30.268Z,69216.00
2023-02-13T12:21:30.188Z,70432.00
2023-02-13T12:22:30.145Z,69120.00
2023-02-13T12:23:30.106Z,67520.00
2023-02-13T12:24:30.068Z,66976.00
2023-02-13T12:25:30.022Z,67552.00
2023-02-13T12:26:30.031Z,66432.00
2023-02-13T12:27:29.949Z,64544.00
2023-02-13T12:28:29.931Z,65056.00
2023-02-13T12:29:29.917Z,64192.00
2023-02-13T12:30:29.846Z,64288.00
2023-02-13T12:31:29.813Z,64960.00
2023-02-13T12:32:29.799Z,65504.00
2023-02-13T12:33:29.702Z,63712.00
2023-02-13T12:34:29.668Z,65952.00
2023-02-13T12:35:29.628Z,69568.00
2023-02-13T12:36:29.587Z,69696.00
2023-02-13T12:37:29.548Z,68896.00
2023-02-13T12:38:29.530Z,70496.00
2023-02-13T12:39:29.475Z,71072.00